Time;durP1;ratioP1;P1;durP2;ratioP2;P2;SDS_P1;SDS_P2;PMS_P1;PMS_P2;Temp;Humidity;BMP_temperature;BMP_pressure;BME280_temperature;BME280_humidity;BME280_pressure;Samples;Min_cycle;Max_cycle;Signal;HPM_P1;HPM_P2
2022/08/31 05:00:30;;;;;;;30.98;11.55;;;;;;;24.69;78.16;100466.28;5249079;22;20427;-76
2022/08/31 05:02:56;;;;;;;38.00;13.50;;;;;;;24.73;77.69;100476.63;5052221;28;20037;-79
2022/08/31 05:05:21;;;;;;;45.60;12.90;;;;;;;24.76;77.79;100473.44;5052277;28;20532;-78
2022/08/31 05:07:47;;;;;;;44.13;13.02;;;;;;;24.84;77.45;100470.44;5052285;28;20033;-79
2022/08/31 05:10:13;;;;;;;29.90;11.75;;;;;;;24.84;77.21;100464.09;5051918;28;20033;-78
2022/08/31 05:12:39;;;;;;;57.00;13.07;;;;;;;24.93;76.92;100473.78;5051489;28;20033;-78
2022/08/31 05:15:05;;;;;;;48.00;11.07;;;;;;;24.95;76.41;100460.66;5051417;28;20044;-79
2022/08/31 05:17:30;;;;;;;40.85;11.45;;;;;;;24.98;76.57;100453.88;5051948;28;20045;-77
2022/08/31 05:19:56;;;;;;;33.40;10.02;;;;;;;25.14;75.26;100470.66;5051911;28;20035;-77
2022/08/31 05:22:21;;;;;;;52.17;10.45;;;;;;;25.17;74.76;100475.72;5050562;28;20482;-77
2022/08/31 05:24:47;;;;;;;51.22;11.18;;;;;;;25.21;74.43;100470.63;5050523;28;20539;-76
2022/08/31 05:27:12;;;;;;;41.97;11.75;;;;;;;25.23;74.72;100469.31;5052714;28;20037;-79
2022/08/31 05:29:38;;;;;;;37.10;14.43;;;;;;;25.25;74.16;100472.72;5053996;28;20033;-78
2022/08/31 05:32:03;;;;;;;44.55;15.23;;;;;;;25.36;73.98;100484.88;5053886;28;20537;-79
2022/08/31 05:34:29;;;;;;;53.38;15.00;;;;;;;25.33;73.60;100457.81;5053844;28;20025;-81
2022/08/31 05:36:56;;;;;;;41.05;15.88;;;;;;;25.42;73.74;100468.31;5051754;28;20061;-78
2022/08/31 05:39:22;;;;;;;41.42;15.88;;;;;;;25.42;73.63;100450.94;5033558;28;20124;-77
2022/08/31 05:41:48;;;;;;;50.33;14.95;;;;;;;25.53;73.33;100461.28;5051762;28;20029;-75
2022/08/31 05:44:15;;;;;;;49.08;14.93;;;;;;;25.60;73.33;100459.28;5051100;28;20043;-76
2022/08/31 05:46:41;;;;;;;41.38;17.90;;;;;;;25.63;73.00;100464.34;5051549;28;20048;-76
2022/08/31 05:49:08;;;;;;;39.80;15.18;;;;;;;25.63;72.75;100464.34;5051166;28;20109;-76
2022/08/31 05:51:34;;;;;;;54.72;15.00;;;;;;;25.67;72.41;100478.50;5051403;28;20451;-77
2022/08/31 05:54:00;;;;;;;56.75;14.85;;;;;;;25.64;72.56;100470.69;5033291;28;20036;-75
2022/08/31 05:56:26;;;;;;;61.15;14.48;;;;;;;25.72;72.59;100476.75;5050765;28;20029;-75
2022/08/31 05:58:53;;;;;;;45.83;13.93;;;;;;;25.71;72.17;100483.34;5050834;28;20405;-81
2022/08/31 06:01:29;;;;;;;38.67;10.10;;;;;;;25.78;71.62;100481.34;5033428;28;20061;-79
2022/08/31 06:03:55;;;;;;;41.05;11.50;;;;;;;25.80;71.05;100487.50;5033274;28;20459;-76
2022/08/31 06:06:21;;;;;;;42.55;12.73;;;;;;;25.77;70.76;100487.94;5051171;28;20033;-76
2022/08/31 06:08:50;;;;;;;44.42;13.48;;;;;;;25.72;71.12;100484.16;5032884;28;20025;-76
2022/08/31 06:11:18;;;;;;;64.70;14.68;;;;;;;25.71;70.91;100477.84;5050986;28;20028;-77
2022/08/31 06:13:45;;;;;;;89.05;16.75;;;;;;;25.75;71.10;100473.53;5054172;28;20548;-77
2022/08/31 06:16:10;;;;;;;39.58;12.75;;;;;;;25.66;70.87;100461.13;5054998;28;20519;-76
2022/08/31 06:18:37;;;;;;;49.22;12.70;;;;;;;25.73;71.39;100480.34;5055286;28;20025;-78
2022/08/31 06:21:07;;;;;;;47.17;12.30;;;;;;;25.91;70.90;100486.72;5054684;28;20041;-75
2022/08/31 06:23:36;;;;;;;44.78;11.77;;;;;;;25.99;70.17;100466.31;5055332;28;20037;-79
2022/08/31 06:26:06;;;;;;;52.00;12.18;;;;;;;26.18;69.24;100480.94;5055884;28;20033;-83
2022/08/31 06:28:33;;;;;;;42.78;11.45;;;;;;;26.13;68.99;100491.78;5037498;28;20513;-78
2022/08/31 06:31:01;;;;;;;36.45;10.48;;;;;;;26.26;68.87;100480.66;5037003;28;20098;-77
2022/08/31 06:33:28;;;;;;;46.63;11.70;;;;;;;26.19;67.74;100469.69;5054848;28;20494;-82
2022/08/31 06:35:54;;;;;;;39.28;9.57;;;;;;;26.26;67.57;100480.66;5054844;28;20037;-77
2022/08/31 06:38:20;;;;;;;63.83;11.60;;;;;;;26.25;67.30;100478.97;5055196;28;20620;-78
2022/08/31 06:40:46;;;;;;;41.90;11.10;;;;;;;26.35;66.96;100479.28;5055199;28;20037;-78
2022/08/31 06:43:11;;;;;;;37.05;9.35;;;;;;;26.37;66.92;100471.59;5053684;28;20033;-80
2022/08/31 06:45:37;;;;;;;46.50;10.20;;;;;;;26.39;66.03;100463.94;5054607;28;20039;-79
2022/08/31 06:48:02;;;;;;;47.40;10.90;;;;;;;26.35;65.89;100457.22;5054070;28;20064;-77
2022/08/31 06:50:28;;;;;;;49.03;10.43;;;;;;;26.49;65.61;100475.25;5054348;28;20807;-81
2022/08/31 06:52:54;;;;;;;36.40;8.60;;;;;;;26.51;65.34;100482.22;5055494;28;20470;-77
2022/08/31 06:55:20;;;;;;;76.13;11.52;;;;;;;26.51;64.96;100479.47;5054399;28;20025;-79
2022/08/31 06:57:46;;;;;;;71.97;9.85;;;;;;;26.68;64.83;100489.88;5054284;28;20071;-80
2022/08/31 07:00:12;;;;;;;45.17;9.48;;;;;;;26.62;63.69;100488.03;5053805;28;20075;-77
2022/08/31 07:02:37;;;;;;;30.80;9.25;;;;;;;26.73;63.49;100482.56;5054837;28;20372;-82
2022/08/31 07:05:03;;;;;;;38.13;10.05;;;;;;;26.84;63.61;100492.88;5056936;28;20111;-83
2022/08/31 07:07:30;;;;;;;44.75;9.57;;;;;;;26.97;62.31;100511.16;5057218;28;20579;-77
2022/08/31 07:09:56;;;;;;;58.58;13.80;;;;;;;27.05;62.14;100510.81;5054935;28;20163;-78
2022/08/31 07:12:21;;;;;;;52.35;11.18;;;;;;;27.04;62.55;100512.72;5054222;28;20021;-76
2022/08/31 07:14:47;;;;;;;45.67;14.40;;;;;;;27.02;63.20;100523.19;5053647;28;20864;-76
2022/08/31 07:17:12;;;;;;;56.78;19.65;;;;;;;26.98;64.31;100515.56;5054072;28;20033;-78
2022/08/31 07:19:38;;;;;;;62.83;21.73;;;;;;;27.08;64.90;100523.31;5053759;28;20135;-77
2022/08/31 07:22:05;;;;;;;76.57;28.63;;;;;;;27.11;65.12;100515.41;5054027;28;20801;-77
2022/08/31 07:24:34;;;;;;;86.25;36.92;;;;;;;27.23;65.05;100507.13;5053392;28;20102;-77
2022/08/31 07:27:08;;;;;;;77.75;34.00;;;;;;;27.25;65.47;100502.19;5053586;28;20058;-77
2022/08/31 07:29:39;;;;;;;80.78;35.80;;;;;;;27.31;65.05;100502.09;5053583;28;20550;-78
2022/08/31 07:32:09;;;;;;;87.55;33.75;;;;;;;27.37;64.69;100498.41;5053431;28;20032;-76
2022/08/31 07:34:35;;;;;;;66.43;27.55;;;;;;;27.42;63.75;100500.47;5053115;28;20467;-76
2022/08/31 07:42:37;;;;;;;56.42;15.23;;;;;;;27.76;61.52;100499.69;5054193;28;20074;-77
2022/08/31 07:45:04;;;;;;;45.55;11.90;;;;;;;27.92;61.20;100504.47;5035203;28;20032;-75
2022/08/31 07:47:31;;;;;;;35.85;10.13;;;;;;;28.02;60.33;100499.19;5034859;28;20025;-76
2022/08/31 07:49:59;;;;;;;42.78;10.35;;;;;;;28.03;59.47;100484.28;5033784;28;20032;-78
2022/08/31 07:52:29;;;;;;;49.80;12.88;;;;;;;28.17;58.90;100481.25;5052284;28;20453;-76
2022/08/31 07:55:06;;;;;;;40.72;9.43;;;;;;;28.34;58.52;100480.28;5051432;28;20036;-76
2022/08/31 07:57:42;;;;;;;34.13;8.80;;;;;;;28.49;57.66;100477.00;5034164;28;20055;-76
2022/08/31 08:00:13;;;;;;;28.90;9.30;;;;;;;28.25;57.21;100467.09;5041274;28;20903;-76
2022/08/31 08:02:40;;;;;;;50.35;9.52;;;;;;;28.38;57.51;100458.47;5030755;28;20442;-78
2022/08/31 08:05:08;;;;;;;25.58;9.25;;;;;;;28.57;55.54;100452.53;5015380;28;20034;-79
2022/08/31 08:07:36;;;;;;;42.28;8.75;;;;;;;28.53;54.59;100414.53;5033603;28;20120;-78
2022/08/31 08:10:04;;;;;;;38.15;12.10;;;;;;;28.68;53.96;100441.69;5033310;28;20072;-77
2022/08/31 08:12:34;;;;;;;28.98;8.98;;;;;;;28.60;52.66;100406.91;5033154;28;20945;-76
2022/08/31 08:15:00;;;;;;;33.17;10.02;;;;;;;28.81;51.82;100424.75;5033077;28;20033;-78
2022/08/31 08:17:25;;;;;;;41.97;8.90;;;;;;;28.68;51.63;100425.94;5033152;28;20033;-79
2022/08/31 08:19:51;;;;;;;31.77;8.35;;;;;;;28.78;51.67;100441.88;5015334;28;20124;-78
2022/08/31 08:22:16;;;;;;;29.92;9.10;;;;;;;28.77;50.96;100435.53;5033057;28;20116;-77
2022/08/31 08:24:44;;;;;;;46.20;8.70;;;;;;;28.80;50.88;100435.03;5032791;28;20037;-78
2022/08/31 08:27:09;;;;;;;47.20;9.88;;;;;;;28.86;50.86;100434.03;5032886;28;20045;-78
2022/08/31 08:29:36;;;;;;;47.90;10.55;;;;;;;29.05;50.91;100449.31;5032841;28;20406;-78
2022/08/31 08:32:02;;;;;;;25.58;9.40;;;;;;;29.12;50.78;100455.53;5032769;28;20033;-78
2022/08/31 08:34:27;;;;;;;42.58;8.50;;;;;;;29.20;50.38;100456.22;5032093;28;20112;-79
2022/08/31 08:36:53;;;;;;;35.67;8.60;;;;;;;29.20;50.68;100456.22;5035363;28;20041;-78
2022/08/31 08:39:19;;;;;;;42.60;8.95;;;;;;;29.09;51.35;100450.50;5033548;28;20033;-79
2022/08/31 08:41:46;;;;;;;42.22;7.88;;;;;;;29.13;51.36;100462.75;5032904;28;20071;-79
2022/08/31 08:44:16;;;;;;;62.53;10.27;;;;;;;29.21;51.17;100461.50;5028477;28;20098;-78
2022/08/31 08:46:53;;;;;;;39.03;7.78;;;;;;;29.20;51.39;100451.53;5032597;28;20033;-78
2022/08/31 08:49:36;;;;;;;25.95;7.00;;;;;;;29.28;51.23;100462.22;5022978;28;20033;-77
2022/08/31 08:52:10;;;;;;;32.25;8.00;;;;;;;29.32;51.48;100457.00;5028137;28;20030;-80
2022/08/31 08:54:39;;;;;;;21.27;6.43;;;;;;;29.36;51.74;100455.41;5032003;28;20029;-77
2022/08/31 08:57:26;;;;;;;33.08;7.13;;;;;;;29.36;51.90;100453.47;5031362;28;20044;-76
2022/08/31 08:59:56;;;;;;;38.47;8.20;;;;;;;29.36;51.80;100447.09;5032530;28;20045;-74
2022/08/31 09:02:38;;;;;;;56.00;9.95;;;;;;;29.51;51.47;100450.94;5031172;28;20558;-75
2022/08/31 09:05:07;;;;;;;;;;;;;;;29.64;50.78;100447.00;5014527;28;20048;-75
2022/08/31 09:08:15;;;;;;;39.03;9.90;;;;;;;29.78;51.04;100447.47;5030835;28;19909;-75
2022/08/31 09:10:50;;;;;;;32.15;7.28;;;;;;;29.84;50.27;100439.03;5031737;28;20034;-74
2022/08/31 09:13:35;;;;;;;27.30;6.95;;;;;;;29.77;49.88;100434.69;5031803;28;20080;-76
2022/08/31 09:16:37;;;;;;;34.67;7.72;;;;;;;29.77;50.59;100438.31;5031866;28;20053;-76
2022/08/31 09:19:07;;;;;;;26.35;7.78;;;;;;;29.93;50.50;100428.31;5031953;28;20091;-76
2022/08/31 09:22:02;;;;;;;31.75;7.10;;;;;;;29.97;50.64;100429.47;5031706;28;20037;-75
2022/08/31 09:24:31;;;;;;;36.85;7.47;;;;;;;29.95;49.78;100432.50;5031346;28;20813;-75
2022/08/31 09:27:18;;;;;;;40.72;6.90;;;;;;;29.99;49.65;100430.91;5031757;28;20037;-76
2022/08/31 09:29:52;;;;;;;23.85;6.25;;;;;;;30.09;49.59;100435.75;5031825;28;20499;-77
2022/08/31 09:32:23;;;;;;;33.90;7.45;;;;;;;30.13;47.41;100432.19;5031883;28;20104;-75
2022/08/31 09:35:00;;;;;;;50.10;7.97;;;;;;;30.22;46.99;100425.09;5031289;28;20117;-76
2022/08/31 09:37:46;;;;;;;34.45;7.75;;;;;;;30.13;46.50;100407.22;5031447;28;20555;-75
2022/08/31 09:40:30;;;;;;;24.88;7.03;;;;;;;30.12;46.35;100413.88;5031716;28;20029;-76
2022/08/31 09:43:02;;;;;;;38.55;6.70;;;;;;;30.26;44.18;100421.81;5003607;28;20049;-75
2022/08/31 09:45:34;;;;;;;37.13;7.70;;;;;;;30.35;44.15;100409.16;5012105;28;20041;-75
2022/08/31 09:48:03;;;;;;;19.80;6.28;;;;;;;30.40;44.02;100410.06;5011985;28;20256;-76
2022/08/31 09:50:36;;;;;;;42.55;7.55;;;;;;;30.47;44.12;100415.44;4994477;28;20132;-76
2022/08/31 09:56:12;;;;;;;27.27;7.38;;;;;;;30.91;43.21;100408.69;5032029;28;20048;-77
2022/08/31 09:58:37;;;;;;;37.10;7.03;;;;;;;31.00;42.91;100401.56;5031711;28;20044;-77
2022/08/31 10:01:12;;;;;;;19.10;6.38;;;;;;;31.28;42.27;100403.19;5048626;28;20057;-75
2022/08/31 10:03:43;;;;;;;41.20;6.72;;;;;;;31.34;40.68;100387.41;5050954;28;20479;-74
2022/08/31 10:06:25;;;;;;;38.83;8.07;;;;;;;31.39;40.71;100381.88;5050651;28;20045;-75
2022/08/31 10:08:56;;;;;;;;;;;;;;;31.61;40.69;100396.50;5052313;28;20033;-76
2022/08/31 10:11:26;;;;;;;35.13;6.80;;;;;;;31.73;41.39;100394.34;5051797;28;19912;-76
2022/08/31 10:14:28;;;;;;;37.42;5.45;;;;;;;31.77;40.27;100389.94;5051438;28;20584;-75
2022/08/31 10:17:25;;;;;;;35.20;7.47;;;;;;;31.88;40.20;100386.09;5050592;28;20522;-75
2022/08/31 10:19:54;;;;;;;25.98;7.28;;;;;;;31.85;39.39;100392.19;5051034;28;20033;-77
2022/08/31 10:22:40;;;;;;;25.45;5.43;;;;;;;31.81;39.39;100377.16;5051064;28;20044;-77
2022/08/31 10:25:16;;;;;;;74.05;10.48;;;;;;;32.08;39.28;100385.41;5050721;28;20033;-75
2022/08/31 10:27:58;;;;;;;27.67;6.47;;;;;;;31.94;39.31;100368.31;5050980;28;20481;-75
2022/08/31 10:30:48;;;;;;;29.77;6.72;;;;;;;31.94;39.25;100361.91;5033862;28;20044;-78
2022/08/31 10:33:19;;;;;;;31.08;5.85;;;;;;;32.22;39.07;100370.69;5047421;28;20064;-77
2022/08/31 10:35:56;;;;;;;24.87;6.17;;;;;;;32.37;39.59;100363.47;5047217;28;20048;-76
2022/08/31 10:38:24;;;;;;;41.08;7.15;;;;;;;32.56;39.19;100365.53;5043197;28;21093;-76
2022/08/31 10:41:24;;;;;;;18.92;5.22;;;;;;;32.78;39.33;100359.72;5039948;28;20193;-76
2022/08/31 10:43:54;;;;;;;24.50;6.13;;;;;;;32.98;38.47;100356.91;5044680;28;20037;-76
2022/08/31 10:46:19;;;;;;;23.48;6.50;;;;;;;32.86;38.50;100357.19;5045104;28;20037;-76
2022/08/31 10:48:45;;;;;;;40.63;6.35;;;;;;;32.88;37.97;100359.69;5045350;28;20037;-79
2022/08/31 10:51:31;;;;;;;32.20;6.53;;;;;;;32.91;38.33;100361.91;5050619;28;20045;-78
2022/08/31 10:54:05;;;;;;;18.20;5.20;;;;;;;33.10;37.87;100371.44;5050491;28;20037;-81
2022/08/31 10:56:59;;;;;;;56.30;7.10;;;;;;;33.12;38.62;100371.97;5030931;28;20037;-80
2022/08/31 10:59:31;;;;;;;32.10;6.25;;;;;;;32.72;40.06;100364.41;5033241;28;20138;-76
2022/08/31 11:02:10;;;;;;;27.75;6.72;;;;;;;32.61;41.10;100367.47;5047204;28;20835;-77
2022/08/31 11:04:54;;;;;;;37.63;7.55;;;;;;;32.40;42.94;100340.66;5053282;28;20079;-76
2022/08/31 11:07:28;;;;;;;40.25;6.97;;;;;;;32.27;43.75;100356.78;5054426;28;20044;-76
2022/08/31 11:10:08;;;;;;;59.92;7.15;;;;;;;32.09;44.29;100362.84;5054084;28;20098;-76
2022/08/31 11:12:41;;;;;;;62.65;7.32;;;;;;;32.03;45.94;100358.38;5041543;28;20025;-78
2022/08/31 11:15:42;;;;;;;31.52;7.13;;;;;;;32.02;45.37;100365.00;5054131;28;20063;-77
2022/08/31 11:18:11;;;;;;;25.52;6.20;;;;;;;32.06;46.49;100359.75;5054316;28;20040;-78
2022/08/31 11:20:50;;;;;;;92.07;11.40;;;;;;;32.11;45.60;100345.88;5036226;28;20453;-77
2022/08/31 11:23:15;;;;;;;45.25;7.97;;;;;;;31.76;46.80;100350.16;5050368;28;20052;-77
2022/08/31 11:26:05;;;;;;;41.33;7.40;;;;;;;31.81;47.36;100354.88;5054653;28;20036;-77
2022/08/31 11:28:47;;;;;;;23.45;6.95;;;;;;;31.80;48.22;100339.31;5037464;28;20037;-77
2022/08/31 11:31:23;;;;;;;40.42;7.13;;;;;;;31.74;48.42;100341.22;5055930;28;20043;-78
2022/08/31 11:34:24;;;;;;;28.88;7.68;;;;;;;31.76;49.04;100319.56;5054374;28;20466;-78
2022/08/31 11:36:56;;;;;;;27.23;6.82;;;;;;;31.66;49.33;100329.78;5054449;28;20029;-77
2022/08/31 11:39:34;;;;;;;30.00;7.30;;;;;;;31.73;50.10;100328.44;5056416;28;20029;-77
2022/08/31 11:42:19;;;;;;;38.83;9.38;;;;;;;31.64;50.10;100307.81;5055592;28;20037;-78
2022/08/31 11:44:58;;;;;;;23.52;7.07;;;;;;;31.69;50.06;100318.13;5055697;28;20037;-77
2022/08/31 11:47:27;;;;;;;20.80;8.05;;;;;;;31.80;49.64;100333.75;5053789;28;20132;-77
2022/08/31 11:50:08;;;;;;;51.80;8.98;;;;;;;31.91;49.70;100335.47;5054132;28;20041;-77
2022/08/31 11:52:49;;;;;;;30.33;7.77;;;;;;;32.06;49.40;100330.00;5069166;28;20033;-77
2022/08/31 11:55:44;;;;;;;26.77;6.78;;;;;;;32.07;50.00;100334.47;5053731;28;20282;-77
2022/08/31 11:58:15;;;;;;;23.90;6.75;;;;;;;32.24;49.57;100334.22;5053578;28;20115;-77
2022/08/31 12:00:58;;;;;;;21.85;6.28;;;;;;;32.29;49.72;100331.47;5038104;28;20065;-77
2022/08/31 12:03:30;;;;;;;34.58;6.70;;;;;;;32.33;49.17;100333.41;5033458;28;20033;-77
2022/08/31 12:05:56;;;;;;;30.58;7.15;;;;;;;32.20;49.27;100320.00;5033538;28;20064;-78
2022/08/31 12:08:26;;;;;;;30.83;6.32;;;;;;;32.27;48.89;100337.28;5033753;28;20114;-77
2022/08/31 12:11:14;;;;;;;38.22;7.60;;;;;;;32.17;48.93;100328.09;5014185;28;20045;-77
2022/08/31 12:13:53;;;;;;;30.17;7.25;;;;;;;32.32;48.53;100337.28;5033462;28;20384;-77
2022/08/31 12:16:30;;;;;;;26.65;6.80;;;;;;;32.32;49.54;100328.94;5033218;28;20037;-80
2022/08/31 12:25:34;;;;;;;28.20;5.93;;;;;;;32.17;48.63;100326.13;5033464;28;20036;-80
2022/08/31 12:28:13;;;;;;;23.42;6.80;;;;;;;32.01;48.51;100310.47;5033002;28;20039;-81
2022/08/31 12:30:48;;;;;;;28.15;6.30;;;;;;;32.16;48.28;100334.75;5033005;28;20422;-81
2022/08/31 12:33:18;;;;;;;34.20;6.93;;;;;;;32.23;46.82;100325.03;5032862;28;20033;-80
2022/08/31 12:35:48;;;;;;;22.33;6.63;;;;;;;32.23;46.10;100319.47;5033019;28;20045;-82
2022/08/31 12:38:19;;;;;;;23.38;6.55;;;;;;;32.31;46.11;100320.88;5032870;28;20030;-77
2022/08/31 12:40:53;;;;;;;40.53;8.10;;;;;;;32.16;45.86;100298.56;5033364;28;20030;-84
2022/08/31 12:43:34;;;;;;;27.17;6.70;;;;;;;32.21;45.41;100316.13;5032805;28;20509;-82
2022/08/31 12:46:19;;;;;;;29.30;6.43;;;;;;;32.20;45.83;100300.53;5015728;28;20141;-80
2022/08/31 12:49:11;;;;;;;31.25;6.32;;;;;;;32.34;45.45;100314.75;5032568;28;20044;-85
2022/08/31 12:51:36;;;;;;;;;;;;;;;32.23;46.50;100311.09;5033155;28;20040;-78
2022/08/31 12:54:14;;;;;;;25.77;6.60;;;;;;;32.09;47.69;100309.97;5032814;28;19913;-82
2022/08/31 12:56:45;;;;;;;27.58;7.43;;;;;;;32.02;49.44;100314.91;5014374;28;20096;-76
2022/08/31 12:59:24;;;;;;;21.77;7.00;;;;;;;31.93;48.26;100311.00;5035034;28;20045;-75
2022/08/31 13:01:50;;;;;;;26.13;7.53;;;;;;;31.92;48.57;100303.78;5051955;28;20298;-74
2022/08/31 13:04:17;;;;;;;29.17;7.07;;;;;;;32.05;49.19;100303.25;5051780;28;20071;-74
2022/08/31 13:06:46;;;;;;;33.08;7.50;;;;;;;31.99;49.03;100309.06;5051840;28;20059;-75
2022/08/31 13:09:36;;;;;;;35.17;6.70;;;;;;;31.93;47.64;100299.84;5052032;28;20039;-77
2022/08/31 13:12:02;;;;;;;29.00;7.70;;;;;;;31.81;49.11;100296.47;5052094;28;20033;-76
2022/08/31 13:14:39;;;;;;;48.63;10.85;;;;;;;31.87;48.65;100289.81;5033406;28;20037;-75
2022/08/31 13:17:09;;;;;;;27.23;7.45;;;;;;;31.80;48.64;100284.50;5050591;28;20032;-76
2022/08/31 13:19:35;;;;;;;27.63;8.25;;;;;;;31.80;48.92;100286.47;5030900;28;20033;-76
2022/08/31 13:22:15;;;;;;;29.63;6.80;;;;;;;31.83;49.02;100275.63;5029570;28;20033;-75
2022/08/31 13:24:44;;;;;;;33.80;7.07;;;;;;;31.76;48.25;100261.16;5028962;28;20060;-76
2022/08/31 13:27:23;;;;;;;28.88;6.60;;;;;;;31.79;47.89;100268.94;5030582;28;20406;-77
2022/08/31 13:29:49;;;;;;;25.88;6.38;;;;;;;31.79;48.96;100268.94;5031072;28;20108;-76
2022/08/31 13:32:31;;;;;;;18.10;6.00;;;;;;;31.78;49.49;100264.47;5031815;28;20037;-75
2022/08/31 13:35:07;;;;;;;50.67;9.90;;;;;;;31.85;47.61;100250.31;5031784;28;20077;-75
2022/08/31 13:38:06;;;;;;;29.70;7.03;;;;;;;31.95;48.66;100263.44;5031478;28;20025;-77
2022/08/31 13:40:38;;;;;;;28.92;6.43;;;;;;;31.82;48.93;100253.66;5031524;28;20471;-76
2022/08/31 13:43:08;;;;;;;34.05;8.02;;;;;;;31.99;49.15;100258.97;5030381;28;20034;-75
2022/08/31 13:45:57;;;;;;;34.28;6.88;;;;;;;31.95;48.26;100261.50;5030218;28;20033;-77
2022/08/31 13:48:39;;;;;;;20.30;6.78;;;;;;;32.01;48.61;100263.19;5031879;28;20043;-76
2022/08/31 13:51:17;;;;;;;20.95;6.63;;;;;;;32.11;47.03;100270.75;5031364;28;20033;-75
2022/08/31 13:53:45;;;;;;;21.55;5.55;;;;;;;32.06;46.24;100260.44;5031162;28;20017;-77
2022/08/31 13:59:22;;;;;;;;;;;;;;;31.97;46.88;100273.16;5034768;28;20107;-75
2022/08/31 14:02:01;;;;;;;21.40;6.25;;;;;;;31.84;46.55;100273.69;5051166;28;20301;-77
2022/08/31 14:04:47;;;;;;;24.92;6.57;;;;;;;31.77;46.60;100271.16;5050936;28;20475;-75
2022/08/31 14:07:20;;;;;;;30.42;6.72;;;;;;;31.68;46.94;100271.97;5033365;28;20149;-77
2022/08/31 14:09:52;;;;;;;27.85;7.07;;;;;;;31.70;48.04;100278.09;5051131;28;20507;-76
2022/08/31 14:12:35;;;;;;;37.50;7.72;;;;;;;31.77;49.73;100287.84;5051292;28;20038;-75
2022/08/31 14:15:09;;;;;;;18.98;7.05;;;;;;;31.73;50.77;100292.28;5051361;28;20033;-77
2022/08/31 14:17:46;;;;;;;21.27;6.25;;;;;;;31.63;50.40;100291.41;5051999;28;20070;-77
2022/08/31 14:20:34;;;;;;;44.28;11.75;;;;;;;31.67;49.79;100304.50;5051873;28;20037;-77
2022/08/31 14:23:20;;;;;;;34.33;6.57;;;;;;;31.66;50.03;100300.03;5051311;28;20035;-77
2022/08/31 14:25:45;;;;;;;29.05;7.55;;;;;;;31.53;49.86;100299.72;5033915;28;20391;-76
2022/08/31 14:28:11;;;;;;;31.00;8.02;;;;;;;31.34;49.91;100301.22;5051851;28;20112;-76
2022/08/31 14:30:37;;;;;;;36.10;8.32;;;;;;;31.30;49.79;100300.94;5051412;28;20068;-76
2022/08/31 14:33:10;;;;;;;20.90;6.38;;;;;;;31.11;53.22;100283.84;5051960;28;20040;-77
2022/08/31 14:35:36;;;;;;;34.25;6.95;;;;;;;31.18;54.84;100320.59;5055234;28;20039;-78
2022/08/31 14:38:01;;;;;;;33.65;7.93;;;;;;;31.05;56.08;100309.94;5054948;28;20041;-77
2022/08/31 14:40:27;;;;;;;31.25;6.78;;;;;;;31.01;56.72;100330.19;5055593;28;20045;-77
2022/08/31 14:42:53;;;;;;;29.23;7.40;;;;;;;30.86;56.66;100316.13;5055599;28;20037;-77
2022/08/31 14:45:18;;;;;;;30.52;7.18;;;;;;;30.85;57.16;100325.56;5055666;28;20036;-77
2022/08/31 14:47:46;;;;;;;31.95;7.80;;;;;;;30.82;56.38;100323.31;5054781;28;20112;-76
2022/08/31 14:50:20;;;;;;;27.98;6.40;;;;;;;30.56;57.53;100316.69;5054647;28;20072;-76
2022/08/31 14:52:57;;;;;;;30.48;7.75;;;;;;;30.21;59.22;100319.94;5054602;28;20387;-77
2022/08/31 14:55:25;;;;;;;34.90;8.35;;;;;;;30.06;59.30;100323.34;5054472;28;20044;-78
2022/08/31 14:58:03;;;;;;;39.13;9.25;;;;;;;30.06;59.37;100323.34;5054537;28;20124;-77
2022/08/31 15:00:31;;;;;;;38.47;8.02;;;;;;;29.95;60.07;100321.56;5054440;28;20102;-76
2022/08/31 15:02:56;;;;;;;25.65;8.25;;;;;;;29.87;60.38;100323.97;5054194;28;20166;-76
2022/08/31 15:05:24;;;;;;;53.60;10.57;;;;;;;29.83;60.68;100323.63;5054078;28;20037;-76
2022/08/31 15:07:51;;;;;;;42.25;7.88;;;;;;;29.75;61.05;100315.75;5036185;28;20029;-76
2022/08/31 15:10:19;;;;;;;39.90;9.50;;;;;;;29.84;61.19;100318.94;5036544;28;20383;-76
2022/08/31 15:12:46;;;;;;;27.92;8.05;;;;;;;29.83;61.12;100314.47;5054281;28;20036;-78
2022/08/31 15:15:13;;;;;;;32.95;7.95;;;;;;;29.74;61.42;100314.06;5054116;28;20044;-77
2022/08/31 15:17:39;;;;;;;27.85;7.72;;;;;;;29.77;61.36;100323.78;5054381;28;20033;-75
2022/08/31 15:20:07;;;;;;;36.58;8.77;;;;;;;29.72;61.54;100315.41;5053731;28;20035;-76
2022/08/31 15:22:34;;;;;;;29.65;9.05;;;;;;;29.58;60.80;100310.25;5053808;28;20053;-77
2022/08/31 15:25:00;;;;;;;29.05;8.52;;;;;;;29.56;59.63;100304.13;5035653;28;20496;-78
2022/08/31 15:27:30;;;;;;;37.50;8.18;;;;;;;29.39;57.96;100285.84;5054150;28;20167;-78
2022/08/31 15:30:01;;;;;;;31.33;8.00;;;;;;;29.52;58.06;100313.19;5055015;28;20032;-78
2022/08/31 15:32:26;;;;;;;20.67;7.68;;;;;;;29.35;56.88;100299.41;5050926;28;20033;-78
2022/08/31 15:34:56;;;;;;;34.65;9.13;;;;;;;29.41;57.27;100308.63;5051779;28;20486;-78
2022/08/31 15:37:24;;;;;;;35.03;8.68;;;;;;;29.37;57.79;100288.06;5053922;28;20044;-78
2022/08/31 15:39:50;;;;;;;28.85;7.47;;;;;;;29.42;58.97;100299.19;5053102;28;20414;-78
2022/08/31 15:42:21;;;;;;;34.60;9.63;;;;;;;29.38;59.67;100298.06;5053240;28;20037;-77
2022/08/31 15:44:54;;;;;;;29.05;7.85;;;;;;;29.30;59.35;100301.25;5053467;28;20064;-76
2022/08/31 15:50:06;;;;;;;31.73;9.30;;;;;;;29.16;60.16;100300.75;5053684;28;20460;-76
2022/08/31 15:52:33;;;;;;;27.20;9.30;;;;;;;29.12;61.06;100300.41;5053526;28;20040;-76
2022/08/31 15:54:59;;;;;;;38.15;8.95;;;;;;;29.16;60.91;100287.75;5053467;28;20060;-77
2022/08/31 15:57:24;;;;;;;26.30;8.70;;;;;;;29.16;62.50;100296.06;5035935;28;20040;-76
2022/08/31 15:59:50;;;;;;;42.22;13.23;;;;;;;29.18;63.04;100281.94;5053493;28;20102;-76
2022/08/31 16:02:19;;;;;;;34.65;9.43;;;;;;;29.17;63.75;100283.84;5053527;28;20040;-76
2022/08/31 16:04:47;;;;;;;32.75;8.98;;;;;;;29.03;64.15;100265.94;5053503;28;20506;-76
2022/08/31 16:07:14;;;;;;;30.98;9.40;;;;;;;29.17;64.36;100281.09;5055604;28;20384;-79
2022/08/31 16:09:43;;;;;;;31.50;8.55;;;;;;;29.14;64.47;100281.59;5055305;28;20025;-76
2022/08/31 16:12:11;;;;;;;32.92;11.80;;;;;;;29.20;64.62;100282.53;5055006;28;20024;-77
2022/08/31 16:14:37;;;;;;;32.35;9.18;;;;;;;29.21;64.77;100286.13;5054901;28;20178;-77
2022/08/31 16:17:04;;;;;;;33.63;10.15;;;;;;;29.22;64.97;100290.56;5053268;28;20119;-77
2022/08/31 16:19:34;;;;;;;25.42;8.55;;;;;;;29.15;65.71;100290.75;5052914;28;20036;-77
2022/08/31 16:22:01;;;;;;;26.85;8.68;;;;;;;29.10;65.82;100286.00;5053158;28;20032;-77
2022/08/31 16:24:34;;;;;;;31.65;9.15;;;;;;;29.01;66.25;100290.28;5052956;28;20029;-78
2022/08/31 16:27:01;;;;;;;40.63;10.20;;;;;;;29.01;66.69;100290.28;5052772;28;20025;-77
2022/08/31 16:29:28;;;;;;;34.72;9.13;;;;;;;28.97;66.50;100291.03;5035000;28;20410;-76
2022/08/31 16:31:55;;;;;;;42.35;9.73;;;;;;;28.91;66.93;100287.34;5053217;28;20036;-77
2022/08/31 16:34:21;;;;;;;35.78;10.15;;;;;;;28.97;66.73;100300.19;5052544;28;20108;-76
2022/08/31 16:36:49;;;;;;;30.85;10.20;;;;;;;28.99;66.87;100305.47;5052750;28;20033;-75
2022/08/31 16:39:15;;;;;;;27.92;9.00;;;;;;;28.95;67.02;100310.69;5052600;28;20090;-76
2022/08/31 16:41:41;;;;;;;18.80;8.43;;;;;;;28.86;67.31;100301.13;5035712;28;20163;-76
2022/08/31 16:44:08;;;;;;;25.83;8.52;;;;;;;28.52;67.38;100280.03;5053013;28;20530;-77
2022/08/31 16:46:34;;;;;;;28.98;9.75;;;;;;;28.88;67.22;100320.22;5052521;28;20059;-77
2022/08/31 16:51:43;;;;;;;35.22;9.77;;;;;;;28.72;67.53;100327.44;5052770;28;20512;-76
2022/08/31 16:54:09;;;;;;;33.72;11.73;;;;;;;28.69;67.54;100347.31;5052728;28;20380;-76
2022/08/31 16:56:38;;;;;;;27.35;11.43;;;;;;;28.56;67.91;100350.41;5051855;28;20106;-77
2022/08/31 16:59:05;;;;;;;23.52;10.32;;;;;;;28.49;68.12;100360.78;5052106;28;20467;-77
2022/08/31 17:01:33;;;;;;;30.17;9.63;;;;;;;28.51;67.69;100353.06;5052074;28;20142;-76